createdAt,value
2022-12-15T00:02:35.065Z,93749.00
2022-12-15T00:05:22.522Z,93738.41
2022-12-15T00:08:08.910Z,93743.28
2022-12-15T00:10:54.134Z,93759.66
2022-12-15T00:13:39.742Z,93762.72
2022-12-15T00:16:25.535Z,93766.47
2022-12-15T00:19:11.371Z,93769.72
2022-12-15T00:21:57.839Z,93770.97
2022-12-15T00:24:42.958Z,93765.00
2022-12-15T00:27:28.383Z,93770.06
2022-12-15T00:30:14.681Z,93760.56
2022-12-15T00:33:00.101Z,93775.16
2022-12-15T00:35:45.407Z,93769.06
2022-12-15T00:38:33.675Z,93763.34
2022-12-15T00:41:01.675Z,93765.44
2022-12-15T00:43:30.579Z,93765.59
2022-12-15T00:46:16.347Z,93764.97
2022-12-15T00:48:45.048Z,93767.25
2022-12-15T00:51:12.593Z,93771.91
2022-12-15T00:54:00.127Z,93777.59
2022-12-15T00:56:45.726Z,93777.91
2022-12-15T00:59:31.077Z,93775.66
2022-12-15T01:02:16.834Z,93775.31
2022-12-15T01:05:02.288Z,93785.84
2022-12-15T01:07:49.903Z,93788.63
2022-12-15T01:10:37.156Z,93796.34
2022-12-15T01:13:23.238Z,93803.50
2022-12-15T01:16:08.897Z,93791.72
2022-12-15T01:18:54.244Z,93810.72
2022-12-15T01:21:25.108Z,93797.50
2022-12-15T01:23:53.783Z,93798.16
2022-12-15T01:26:22.960Z,93806.66
2022-12-15T01:28:50.758Z,93801.38
2022-12-15T01:31:18.607Z,93813.72
2022-12-15T01:33:46.437Z,93805.63
2022-12-15T01:36:14.494Z,93815.59
2022-12-15T01:38:42.710Z,93817.50
2022-12-15T01:41:12.425Z,93820.34
2022-12-15T01:43:41.999Z,93817.69
2022-12-15T01:46:12.439Z,93824.00
2022-12-15T01:48:44.337Z,93830.44
2022-12-15T01:51:17.114Z,93823.19
2022-12-15T01:53:56.550Z,93829.66
2022-12-15T01:56:26.341Z,93822.97
2022-12-15T01:59:01.685Z,93819.66
2022-12-15T02:01:29.761Z,93819.56
2022-12-15T02:03:57.799Z,93830.75
2022-12-15T02:06:27.425Z,93829.50
2022-12-15T02:08:58.158Z,93831.56
2022-12-15T02:11:44.564Z,93828.88
2022-12-15T02:14:19.868Z,93822.44
2022-12-15T02:17:08.527Z,93830.59
2022-12-15T02:20:17.924Z,93828.91
2022-12-15T02:23:08.937Z,93855.34
2022-12-15T02:26:11.518Z,93867.31
2022-12-15T02:28:53.698Z,93861.22
2022-12-15T02:31:45.275Z,93863.41
2022-12-15T02:34:23.982Z,93874.59
2022-12-15T02:36:57.840Z,93872.09
2022-12-15T02:39:26.524Z,93870.94
2022-12-15T02:41:54.558Z,93884.63
2022-12-15T02:44:27.772Z,93880.22
2022-12-15T02:47:11.613Z,93877.41
2022-12-15T02:49:49.961Z,93882.00
2022-12-15T02:52:34.616Z,93879.78
2022-12-15T02:55:17.483Z,93895.53
2022-12-15T02:57:54.281Z,93895.53
2022-12-15T03:00:23.717Z,93893.31
2022-12-15T03:02:55.523Z,93894.41
2022-12-15T03:05:25.341Z,93887.31
2022-12-15T03:07:54.212Z,93895.69
2022-12-15T03:10:24.693Z,93890.50
2022-12-15T03:12:54.426Z,93886.88
2022-12-15T03:15:22.712Z,93883.69
2022-12-15T03:17:52.432Z,93883.06
2022-12-15T03:20:20.697Z,93899.13
2022-12-15T03:22:48.432Z,93891.59
2022-12-15T03:25:16.257Z,93895.19
2022-12-15T03:27:44.339Z,93908.88
2022-12-15T03:30:13.655Z,93911.56
2022-12-15T03:32:41.500Z,93921.47
2022-12-15T03:35:12.879Z,93915.03
2022-12-15T03:37:40.661Z,93913.28
2022-12-15T03:40:09.579Z,93913.91
2022-12-15T03:42:49.633Z,93920.06
2022-12-15T03:45:19.074Z,93924.31
2022-12-15T03:47:47.897Z,93916.75
2022-12-15T03:50:20.155Z,93926.50
2022-12-15T03:52:52.165Z,93934.81
2022-12-15T03:55:20.116Z,93925.69
2022-12-15T03:57:48.149Z,93934.69
2022-12-15T04:00:18.483Z,93940.81
2022-12-15T04:02:47.298Z,93955.13
2022-12-15T04:05:23.239Z,93939.25
2022-12-15T04:07:51.086Z,93947.56
2022-12-15T04:10:19.308Z,93941.63
2022-12-15T04:12:47.244Z,93953.53
2022-12-15T04:15:15.468Z,93949.28
2022-12-15T04:17:43.483Z,93943.75
2022-12-15T04:20:11.976Z,93945.97
2022-12-15T04:22:43.022Z,93945.19
2022-12-15T04:25:30.992Z,93958.41
2022-12-15T04:28:17.669Z,93953.69
2022-12-15T04:31:06.850Z,93948.78
2022-12-15T04:33:52.457Z,93949.47
2022-12-15T04:36:37.859Z,93961.13
2022-12-15T04:39:24.656Z,93961.25
2022-12-15T04:42:10.906Z,93961.56
2022-12-15T04:44:56.360Z,93970.09
2022-12-15T04:47:41.817Z,93957.19
2022-12-15T04:50:27.807Z,93954.59
2022-12-15T04:53:13.261Z,93957.94
2022-12-15T04:56:00.072Z,93955.56
2022-12-15T04:58:45.525Z,93959.78
2022-12-15T05:01:30.961Z,93960.25
2022-12-15T05:04:16.305Z,93969.66
2022-12-15T05:07:01.502Z,93968.25
2022-12-15T05:09:46.934Z,93970.34
2022-12-15T05:12:33.448Z,93968.97
2022-12-15T05:15:18.794Z,93974.31
2022-12-15T05:18:04.243Z,93974.59
2022-12-15T05:20:50.203Z,93976.03
2022-12-15T05:23:35.745Z,93990.16
2022-12-15T05:26:21.514Z,93994.41
2022-12-15T05:29:08.115Z,94000.94
2022-12-15T05:31:47.811Z,93998.09
2022-12-15T05:34:16.299Z,93995.16
2022-12-15T05:36:44.178Z,93992.34
2022-12-15T05:39:12.019Z,93993.91
2022-12-15T05:41:39.757Z,93986.81
2022-12-15T05:44:09.350Z,93995.91
2022-12-15T05:46:37.951Z,93994.00
2022-12-15T05:49:09.187Z,93994.66
2022-12-15T05:51:40.360Z,93995.66
2022-12-15T05:54:08.716Z,93994.72
2022-12-15T05:56:37.377Z,94005.63
2022-12-15T05:59:05.452Z,94010.78
2022-12-15T06:01:35.422Z,94021.31
2022-12-15T06:04:03.435Z,94023.66
2022-12-15T06:06:31.276Z,94018.63
2022-12-15T06:08:59.526Z,94030.31
2022-12-15T06:11:27.606Z,94021.78
2022-12-15T06:13:57.831Z,94005.78
2022-12-15T06:16:27.986Z,94029.25
2022-12-15T06:18:58.654Z,94047.94
2022-12-15T06:21:29.034Z,94046.34
2022-12-15T06:23:57.961Z,94052.00
2022-12-15T06:26:27.255Z,94054.16
2022-12-15T06:28:56.951Z,94048.97
2022-12-15T06:31:25.748Z,94053.34
2022-12-15T06:34:01.051Z,94062.63
2022-12-15T06:36:31.678Z,94054.63
2022-12-15T06:39:00.537Z,94059.63
2022-12-15T06:41:30.404Z,94063.94
2022-12-15T06:43:58.779Z,94069.78
2022-12-15T06:46:28.264Z,94070.97
2022-12-15T06:48:56.688Z,94076.47
2022-12-15T06:51:24.929Z,94083.50
2022-12-15T06:53:55.522Z,94080.38
2022-12-15T06:56:30.705Z,94071.59
2022-12-15T06:59:01.590Z,94075.84
2022-12-15T07:01:29.522Z,94080.34
2022-12-15T07:03:59.901Z,94080.19
2022-12-15T07:06:29.580Z,94075.69
2022-12-15T07:08:59.049Z,94079.44
2022-12-15T07:11:26.825Z,94083.41
2022-12-15T07:13:55.365Z,94081.66
2022-12-15T07:16:24.778Z,94077.78
2022-12-15T07:18:52.673Z,94086.22
2022-12-15T07:21:20.617Z,94090.53
2022-12-15T07:23:56.940Z,94085.56
2022-12-15T07:26:30.106Z,94094.38
2022-12-15T07:28:57.995Z,94096.56
2022-12-15T07:31:25.921Z,94106.66
2022-12-15T07:33:54.945Z,94092.75
2022-12-15T07:36:23.213Z,94095.03
2022-12-15T07:38:51.840Z,94092.72
2022-12-15T07:41:20.947Z,94087.34
2022-12-15T07:43:50.333Z,94086.53
2022-12-15T07:46:18.669Z,94086.22
2022-12-15T07:48:50.358Z,94087.53
2022-12-15T07:51:20.738Z,94083.06
2022-12-15T07:53:50.552Z,94089.75
2022-12-15T07:56:21.935Z,94076.00
2022-12-15T07:58:52.054Z,94086.69
2022-12-15T08:01:20.056Z,94089.56
2022-12-15T08:03:49.726Z,94089.06
2022-12-15T08:06:17.615Z,94101.66
2022-12-15T08:08:50.424Z,94109.47
2022-12-15T08:11:20.404Z,94106.44
2022-12-15T08:14:06.946Z,94089.75
2022-12-15T08:16:38.119Z,94115.75
2022-12-15T08:19:06.740Z,94118.81
2022-12-15T08:21:35.201Z,94123.19
2022-12-15T08:24:04.312Z,94131.72
2022-12-15T08:26:32.589Z,94135.94
2022-12-15T08:29:31.865Z,94143.97
2022-12-15T08:31:53.372Z,94150.41
2022-12-15T08:34:21.418Z,94156.72
2022-12-15T08:36:49.212Z,94156.44
2022-12-15T08:39:17.517Z,94153.47
2022-12-15T08:41:45.776Z,94157.50
2022-12-15T08:44:13.549Z,94161.91
2022-12-15T08:46:41.364Z,94167.38
2022-12-15T08:49:14.187Z,94181.59
2022-12-15T08:51:44.406Z,94166.63
2022-12-15T08:54:12.327Z,94173.38
2022-12-15T08:56:42.948Z,94174.41
2022-12-15T08:59:10.835Z,94182.44
2022-12-15T09:01:40.279Z,94182.38
2022-12-15T09:04:10.050Z,94174.03
2022-12-15T09:06:37.965Z,94185.53
2022-12-15T09:09:08.802Z,94179.72
2022-12-15T09:11:36.697Z,94178.63
2022-12-15T09:14:05.188Z,94181.94
2022-12-15T09:16:33.155Z,94171.34
2022-12-15T09:19:01.289Z,94164.44
2022-12-15T09:21:32.063Z,94156.66
2022-12-15T09:24:02.020Z,94158.44
2022-12-15T09:26:32.305Z,94153.53
2022-12-15T09:29:01.773Z,94159.69
2022-12-15T09:31:31.396Z,94151.19
2022-12-15T09:34:01.723Z,94150.66
2022-12-15T09:36:32.642Z,94141.72
2022-12-15T09:39:02.893Z,94144.41
2022-12-15T09:41:33.360Z,94146.47
2022-12-15T09:44:05.248Z,94133.84
2022-12-15T09:46:49.974Z,94141.25
2022-12-15T09:49:26.422Z,94146.38
2022-12-15T09:52:07.198Z,94152.88
2022-12-15T09:54:38.784Z,94141.72
2022-12-15T09:57:11.516Z,94091.94
2022-12-15T09:59:46.041Z,94137.16
2022-12-15T10:02:29.559Z,94127.72
2022-12-15T10:05:06.648Z,94125.03
2022-12-15T10:07:44.246Z,94110.66
2022-12-15T10:10:18.994Z,94108.16
2022-12-15T10:12:59.874Z,94109.66
2022-12-15T10:15:38.314Z,94110.91
2022-12-15T10:18:13.911Z,94108.31
2022-12-15T10:20:41.788Z,94108.28
2022-12-15T10:23:15.139Z,94106.88
2022-12-15T10:25:47.871Z,94097.75
2022-12-15T10:28:51.200Z,94110.69
2022-12-15T10:31:25.791Z,94121.88
2022-12-15T10:33:58.836Z,94119.22
2022-12-15T10:36:26.830Z,94112.59
2022-12-15T10:38:56.084Z,94102.03
2022-12-15T10:41:25.797Z,94100.28
2022-12-15T10:43:54.921Z,94088.66
2022-12-15T10:46:25.484Z,94081.41
2022-12-15T10:48:55.162Z,94080.28
2022-12-15T10:51:27.342Z,94066.88
2022-12-15T10:54:06.421Z,94059.53
2022-12-15T10:56:35.384Z,94053.53
2022-12-15T10:59:05.220Z,94047.06
2022-12-15T11:01:35.908Z,94048.94
2022-12-15T11:04:04.112Z,94045.94
2022-12-15T11:06:34.182Z,94062.97
2022-12-15T11:09:25.112Z,94058.19
2022-12-15T11:12:13.570Z,94050.84
2022-12-15T11:14:46.073Z,94054.28
2022-12-15T11:17:17.936Z,94050.66
2022-12-15T11:22:45.598Z,94034.75
2022-12-15T11:25:35.894Z,94031.41
2022-12-15T11:28:09.493Z,94030.47
2022-12-15T11:30:43.816Z,94021.94
2022-12-15T11:33:11.700Z,94025.66
2022-12-15T11:35:58.762Z,94024.88
2022-12-15T11:38:33.503Z,94032.75
2022-12-15T11:41:09.969Z,94041.66
2022-12-15T11:44:06.738Z,94028.56
2022-12-15T11:46:42.495Z,94053.78
2022-12-15T11:49:40.747Z,94048.09
2022-12-15T11:52:17.120Z,94035.34
2022-12-15T11:54:49.760Z,94032.31
2022-12-15T11:57:53.006Z,94036.84
2022-12-15T12:00:23.417Z,94037.72
2022-12-15T12:03:02.421Z,94034.22
2022-12-15T12:05:45.537Z,94024.38
2022-12-15T12:08:36.519Z,94022.63
2022-12-15T12:11:12.272Z,94016.28
2022-12-15T12:13:51.252Z,94003.81
2022-12-15T12:16:30.232Z,93998.16
2022-12-15T12:19:03.456Z,93992.44
2022-12-15T12:21:36.163Z,93984.44
2022-12-15T12:24:11.681Z,93951.63
2022-12-15T12:26:44.811Z,93968.84
2022-12-15T12:29:19.820Z,93977.06
2022-12-15T12:32:03.874Z,93952.75
2022-12-15T12:34:42.704Z,93953.44
2022-12-15T12:37:18.125Z,93953.63
2022-12-15T12:39:46.566Z,93956.44
2022-12-15T12:42:21.362Z,93957.56
2022-12-15T12:44:50.771Z,93967.72
2022-12-15T12:47:23.616Z,93968.22
2022-12-15T12:49:55.548Z,93963.09
2022-12-15T12:52:26.849Z,93950.16
2022-12-15T12:54:59.801Z,93956.84
2022-12-15T12:57:36.049Z,93957.84
2022-12-15T13:00:30.903Z,93958.25
2022-12-15T13:03:18.928Z,93960.72
2022-12-15T13:05:52.182Z,93957.59
2022-12-15T13:08:45.196Z,93974.78
2022-12-15T13:11:46.528Z,93950.72
2022-12-15T13:17:26.528Z,93974.25
2022-12-15T13:20:28.820Z,93966.16
2022-12-15T13:23:41.154Z,93967.66
2022-12-15T13:26:19.252Z,93948.19
2022-12-15T13:28:52.490Z,93921.72
2022-12-15T13:31:30.135Z,93932.94
2022-12-15T13:34:19.316Z,93932.25
2022-12-15T13:36:55.473Z,93930.72
2022-12-15T13:39:56.374Z,93936.03
2022-12-15T13:42:38.756Z,93929.66
2022-12-15T13:45:43.139Z,93942.19
2022-12-15T13:48:23.103Z,93940.59
2022-12-15T13:50:58.291Z,93937.28
2022-12-15T13:53:29.780Z,93926.03
2022-12-15T13:56:34.158Z,93928.88
2022-12-15T13:59:14.062Z,93943.94
2022-12-15T14:01:51.271Z,93937.78
2022-12-15T14:04:20.244Z,93952.84
2022-12-15T14:06:51.055Z,93948.91
2022-12-15T14:09:28.436Z,93937.16
2022-12-15T14:11:56.855Z,93932.41
2022-12-15T14:14:29.613Z,93921.09
2022-12-15T14:17:02.044Z,93931.63
2022-12-15T14:19:39.943Z,93938.03
2022-12-15T14:22:27.959Z,93926.53
2022-12-15T14:25:02.240Z,93924.78
2022-12-15T14:27:34.392Z,93930.28
2022-12-15T14:30:24.080Z,93923.03
2022-12-15T14:32:56.373Z,93922.88
2022-12-15T14:35:29.865Z,93917.44
2022-12-15T14:38:01.043Z,93921.66
2022-12-15T14:40:38.839Z,93927.69
2022-12-15T14:43:17.038Z,93926.91
2022-12-15T14:45:46.398Z,93925.00
2022-12-15T14:48:42.268Z,93925.84
2022-12-15T14:51:12.706Z,93919.06
2022-12-15T14:53:43.174Z,93906.00
2022-12-15T14:56:30.731Z,93904.94
2022-12-15T14:59:03.953Z,93898.66
2022-12-15T15:01:37.052Z,93900.06
2022-12-15T15:03:09.090Z,94042.44
2022-12-15T15:03:15.541Z,93975.84
2022-12-15T15:04:07.385Z,93883.56
2022-12-15T15:06:38.502Z,93887.97
2022-12-15T15:09:19.883Z,93905.25
2022-12-15T15:11:51.007Z,93900.72
2022-12-15T15:14:24.593Z,93882.59
2022-12-15T15:17:05.226Z,93881.50
2022-12-15T15:19:39.359Z,93868.16
2022-12-15T15:22:25.268Z,93888.91
2022-12-15T15:24:53.401Z,93884.66
2022-12-15T15:27:33.718Z,93883.72
2022-12-15T15:30:15.421Z,93883.72
2022-12-15T15:32:56.566Z,93893.31
2022-12-15T15:35:27.055Z,93868.63
2022-12-15T15:38:02.601Z,93891.13
2022-12-15T15:40:31.474Z,93883.88
2022-12-15T15:42:59.383Z,93880.09
2022-12-15T15:45:27.293Z,93888.44
2022-12-15T15:47:56.665Z,93879.66
2022-12-15T15:50:30.425Z,93878.06
2022-12-15T15:52:59.219Z,93876.00
2022-12-15T15:55:33.677Z,93876.97
2022-12-15T15:58:13.217Z,93873.50
2022-12-15T16:00:41.550Z,93878.53
2022-12-15T16:03:11.285Z,93876.00
2022-12-15T16:05:40.672Z,93873.81
2022-12-15T16:08:10.485Z,93873.00
2022-12-15T16:10:38.492Z,93862.81
2022-12-15T16:13:07.964Z,93856.50
2022-12-15T16:15:35.919Z,93846.91
2022-12-15T16:18:03.801Z,93851.47
2022-12-15T16:20:35.048Z,93841.56
2022-12-15T16:23:05.739Z,93848.16
2022-12-15T16:25:43.835Z,93850.38
2022-12-15T16:28:18.552Z,93853.06
2022-12-15T16:30:47.727Z,93852.28
2022-12-15T16:33:15.966Z,93848.94
2022-12-15T16:35:48.125Z,93857.44
2022-12-15T16:38:19.484Z,93849.09
2022-12-15T16:40:47.519Z,93847.06
2022-12-15T16:43:17.459Z,93839.22
2022-12-15T16:45:47.575Z,93845.03
2022-12-15T16:48:16.028Z,93848.78
2022-12-15T16:50:50.671Z,93850.53
2022-12-15T16:53:24.173Z,93843.28
2022-12-15T16:55:55.287Z,93843.78
2022-12-15T16:58:25.104Z,93842.50
2022-12-15T17:00:53.783Z,93836.38
2022-12-15T17:03:25.745Z,93828.19
2022-12-15T17:05:57.411Z,93831.66
2022-12-15T17:08:29.041Z,93811.19
2022-12-15T17:10:57.451Z,93818.91
2022-12-15T17:13:36.536Z,93822.06
2022-12-15T17:16:07.010Z,93816.22
2022-12-15T17:18:35.682Z,93821.59
2022-12-15T17:21:11.515Z,93813.88
2022-12-15T17:23:41.163Z,93811.81
2022-12-15T17:26:25.795Z,93809.97
2022-12-15T17:28:56.513Z,93807.78
2022-12-15T17:31:31.514Z,93801.63
2022-12-15T17:34:03.704Z,93799.41
2022-12-15T17:36:33.009Z,93796.44
2022-12-15T17:39:02.383Z,93796.09
2022-12-15T17:41:58.878Z,93790.78
2022-12-15T17:44:39.263Z,93796.56
2022-12-15T17:47:09.300Z,93791.88
2022-12-15T17:49:38.952Z,93788.91
2022-12-15T17:52:21.915Z,93794.56
2022-12-15T17:54:50.358Z,93804.94
2022-12-15T17:57:20.620Z,93805.25
2022-12-15T17:59:48.594Z,93793.31
2022-12-15T18:02:16.982Z,93790.00
2022-12-15T18:04:45.861Z,93803.34
2022-12-15T18:07:22.418Z,93780.06
2022-12-15T18:09:51.437Z,93778.53
2022-12-15T18:12:21.174Z,93784.66
2022-12-15T18:14:49.413Z,93772.38
2022-12-15T18:17:17.436Z,93772.53
2022-12-15T18:19:45.591Z,93775.97
2022-12-15T18:22:15.458Z,93768.56
2022-12-15T18:24:44.852Z,93757.09
2022-12-15T18:27:20.403Z,93759.00
2022-12-15T18:29:48.564Z,93767.00
2022-12-15T18:32:16.975Z,93765.47
2022-12-15T18:34:45.333Z,93763.84
2022-12-15T18:37:17.086Z,93765.28
2022-12-15T18:39:46.592Z,93751.31
2022-12-15T18:42:16.455Z,93753.47
2022-12-15T18:44:47.342Z,93740.75
2022-12-15T18:47:17.296Z,93745.63
2022-12-15T18:49:45.427Z,93739.31
2022-12-15T18:52:18.350Z,93736.16
2022-12-15T18:54:48.593Z,93727.22
2022-12-15T18:57:32.485Z,93731.94
2022-12-15T19:00:08.490Z,93724.84
2022-12-15T19:02:36.740Z,93719.97
2022-12-15T19:05:05.249Z,93717.31
2022-12-15T19:07:33.447Z,93710.25
2022-12-15T19:10:02.676Z,93725.19
2022-12-15T19:12:30.723Z,93706.75
2022-12-15T19:14:58.549Z,93705.97
2022-12-15T19:17:43.680Z,93703.28
2022-12-15T19:20:35.030Z,93711.63
2022-12-15T19:23:03.171Z,93707.06
2022-12-15T19:25:33.271Z,93712.72
2022-12-15T19:28:01.904Z,93706.88
2022-12-15T19:30:36.910Z,93700.44
2022-12-15T19:33:08.201Z,93687.53
2022-12-15T19:35:37.973Z,93691.00
2022-12-15T19:38:06.657Z,93693.66
2022-12-15T19:40:37.566Z,93697.44
2022-12-15T19:43:06.498Z,93692.03
2022-12-15T19:45:34.867Z,93686.28
2022-12-15T19:48:02.800Z,93684.38
2022-12-15T19:50:33.661Z,93673.00
2022-12-15T19:53:04.608Z,93667.38
2022-12-15T19:55:36.982Z,93669.13
2022-12-15T19:58:26.748Z,93668.19
2022-12-15T20:00:56.987Z,93658.66
2022-12-15T20:03:25.344Z,93642.28
2022-12-15T20:05:55.616Z,93641.34
2022-12-15T20:08:26.556Z,93639.31
2022-12-15T20:10:59.198Z,93630.31
2022-12-15T20:13:27.440Z,93633.00
2022-12-15T20:15:56.410Z,93630.34
2022-12-15T20:18:24.313Z,93631.44
2022-12-15T20:20:52.611Z,93610.66
2022-12-15T20:23:26.283Z,93620.69
2022-12-15T20:25:56.981Z,93626.19
2022-12-15T20:28:26.330Z,93618.72
2022-12-15T20:30:55.988Z,93619.19
2022-12-15T20:33:24.604Z,93619.69
2022-12-15T20:35:52.985Z,93621.03
2022-12-15T20:38:29.620Z,93612.25
2022-12-15T20:40:59.807Z,93613.44
2022-12-15T20:43:31.064Z,93600.72
2022-12-15T20:46:04.140Z,93596.94
2022-12-15T20:48:35.151Z,93601.84
2022-12-15T20:51:07.530Z,93597.31
2022-12-15T20:53:37.646Z,93600.28
2022-12-15T20:56:07.607Z,93599.38
2022-12-15T20:58:41.733Z,93601.22
2022-12-15T21:01:19.338Z,93581.81
2022-12-15T21:03:50.482Z,93596.06
2022-12-15T21:06:20.591Z,93596.69
2022-12-15T21:08:49.367Z,93597.63
2022-12-15T21:11:22.131Z,93596.97
2022-12-15T21:13:52.239Z,93598.22
2022-12-15T21:16:23.281Z,93596.59
2022-12-15T21:19:18.568Z,93599.00
2022-12-15T21:21:43.051Z,93603.41
2022-12-15T21:24:16.601Z,93587.22
2022-12-15T21:26:46.674Z,93585.53
2022-12-15T21:29:16.056Z,93597.53
2022-12-15T21:31:44.863Z,93583.00
2022-12-15T21:34:13.568Z,93581.19
2022-12-15T21:36:43.995Z,93587.56
2022-12-15T21:39:16.977Z,93586.31
2022-12-15T21:41:46.247Z,93577.13
2022-12-15T21:44:15.067Z,93582.63
2022-12-15T21:46:43.416Z,93583.25
2022-12-15T21:49:18.496Z,93586.25
2022-12-15T21:51:48.432Z,93577.38
2022-12-15T21:54:19.338Z,93591.03
2022-12-15T21:56:49.722Z,93587.06
2022-12-15T21:59:20.674Z,93583.38
2022-12-15T22:01:49.766Z,93593.03
2022-12-15T22:04:21.684Z,93595.72
2022-12-15T22:06:51.118Z,93597.72
2022-12-15T22:09:21.308Z,93593.22
2022-12-15T22:11:53.906Z,93592.13
2022-12-15T22:14:26.488Z,93598.25
2022-12-15T22:16:55.053Z,93597.75
2022-12-15T22:19:23.301Z,93599.09
2022-12-15T22:21:52.377Z,93598.69
2022-12-15T22:24:20.888Z,93589.06
2022-12-15T22:26:50.154Z,93592.19
2022-12-15T22:29:22.291Z,93591.25
2022-12-15T22:31:51.819Z,93596.47
2022-12-15T22:34:21.458Z,93591.41
2022-12-15T22:36:50.458Z,93576.56
2022-12-15T22:39:18.961Z,93578.47
2022-12-15T22:41:54.068Z,93580.56
2022-12-15T22:44:27.719Z,93561.63
2022-12-15T22:46:57.769Z,93566.25
2022-12-15T22:49:30.159Z,93555.19
2022-12-15T22:51:59.163Z,93556.59
2022-12-15T22:54:28.898Z,93544.88
2022-12-15T22:57:04.101Z,93547.19
2022-12-15T22:59:36.844Z,93543.44
2022-12-15T23:02:05.157Z,93536.16
2022-12-15T23:04:33.387Z,93534.34
2022-12-15T23:07:03.608Z,93527.41
2022-12-15T23:09:32.069Z,93527.41
2022-12-15T23:12:00.741Z,93529.16
2022-12-15T23:14:42.779Z,93526.53
2022-12-15T23:17:12.043Z,93525.94
2022-12-15T23:19:44.629Z,93523.75
2022-12-15T23:22:13.269Z,93517.13
2022-12-15T23:24:41.195Z,93525.66
2022-12-15T23:27:12.813Z,93523.22
2022-12-15T23:29:43.908Z,93511.50
2022-12-15T23:32:13.941Z,93509.31
2022-12-15T23:34:42.362Z,93517.13
2022-12-15T23:37:10.296Z,93561.97
2022-12-15T23:39:39.579Z,93568.75
2022-12-15T23:42:07.329Z,93568.66
2022-12-15T23:44:37.228Z,93561.88
2022-12-15T23:47:05.377Z,93566.13
2022-12-15T23:49:33.190Z,93569.22
2022-12-15T23:52:00.995Z,93571.06
2022-12-15T23:54:29.042Z,93571.50
2022-12-15T23:56:56.872Z,93582.53
2022-12-15T23:59:24.618Z,93576.69
